Time;durP1;ratioP1;P1;durP2;ratioP2;P2;SDS_P1;SDS_P2;PMS_P1;PMS_P2;Temp;Humidity;BMP_temperature;BMP_pressure;BME280_temperature;BME280_humidity;BME280_pressure;Samples;Min_cycle;Max_cycle;Signal;HPM_P1;HPM_P2
2024/04/18 00:00:04;;;;;;;1.97;1.80;;;3.40;99.90;;;;;;5275436;27;20229;-52
2024/04/18 00:02:29;;;;;;;4.23;1.87;;;3.40;99.90;;;;;;5275014;27;20232;-55
2024/04/18 00:04:55;;;;;;;3.83;2.50;;;3.40;99.90;;;;;;5275269;27;20887;-54
2024/04/18 00:07:20;;;;;;;5.40;2.30;;;3.40;99.90;;;;;;5275109;27;20228;-54
2024/04/18 00:09:46;;;;;;;2.93;2.00;;;3.30;99.90;;;;;;5274597;27;20283;-55
2024/04/18 00:12:11;;;;;;;2.90;2.60;;;3.40;99.90;;;;;;5274921;27;20236;-52
2024/04/18 00:14:37;;;;;;;4.70;2.03;;;3.30;99.90;;;;;;5274908;27;20275;-55
2024/04/18 00:17:03;;;;;;;2.10;1.90;;;3.30;99.90;;;;;;5275167;27;20263;-56
2024/04/18 00:19:28;;;;;;;1.87;1.70;;;3.30;99.90;;;;;;5275025;27;20228;-51
2024/04/18 00:21:54;;;;;;;2.47;2.27;;;3.30;99.90;;;;;;5275058;27;20645;-52
2024/04/18 00:24:20;;;;;;;2.57;1.90;;;3.30;99.90;;;;;;5275168;27;20228;-50
2024/04/18 00:26:46;;;;;;;3.20;2.17;;;3.20;99.90;;;;;;5274518;27;20468;-54
2024/04/18 00:29:11;;;;;;;5.33;1.93;;;3.20;99.90;;;;;;5286434;27;20236;-57
2024/04/18 00:31:37;;;;;;;2.73;2.53;;;3.10;99.90;;;;;;5274702;27;20757;-53
2024/04/18 00:34:02;;;;;;;2.70;1.93;;;3.10;99.90;;;;;;5275181;27;20236;-50
2024/04/18 00:36:28;;;;;;;3.67;2.40;;;3.10;99.90;;;;;;5274580;27;20280;-51
2024/04/18 00:38:54;;;;;;;2.23;2.03;;;3.10;99.90;;;;;;5274527;27;20228;-52
2024/04/18 00:41:19;;;;;;;2.10;1.83;;;3.10;99.90;;;;;;5274844;27;20342;-56
2024/04/18 00:43:45;;;;;;;2.87;2.67;;;3.00;99.90;;;;;;5274671;27;20232;-53
2024/04/18 00:46:11;;;;;;;2.40;2.20;;;3.00;99.90;;;;;;5274867;27;20706;-50
2024/04/18 00:48:36;;;;;;;2.50;2.30;;;3.00;99.90;;;;;;5274913;27;20236;-50
2024/04/18 00:51:03;;;;;;;2.73;2.50;;;3.00;99.90;;;;;;5274852;27;20459;-53
2024/04/18 00:53:29;;;;;;;3.10;2.70;;;3.00;99.90;;;;;;5274639;27;20236;-50
2024/04/18 00:55:56;;;;;;;2.77;2.57;;;3.00;99.90;;;;;;5274834;27;20516;-51
2024/04/18 00:58:23;;;;;;;3.13;2.13;;;2.90;99.90;;;;;;5274309;27;20455;-51
2024/04/18 01:00:50;;;;;;;5.00;3.57;;;2.90;99.90;;;;;;5275982;27;20448;-54
2024/04/18 01:03:15;;;;;;;3.67;2.97;;;2.90;99.90;;;;;;5274572;27;21068;-51
2024/04/18 01:05:42;;;;;;;2.90;2.57;;;2.90;99.90;;;;;;5274259;27;20512;-50
2024/04/18 01:08:08;;;;;;;3.50;2.63;;;2.90;99.90;;;;;;5274419;27;20240;-50
2024/04/18 01:10:33;;;;;;;2.83;2.63;;;2.90;99.90;;;;;;5275109;27;20530;-53
2024/04/18 01:13:00;;;;;;;3.00;2.80;;;2.80;99.90;;;;;;5274712;27;20464;-54
2024/04/18 01:15:26;;;;;;;2.50;2.23;;;2.80;99.90;;;;;;5273892;27;20279;-51
2024/04/18 01:17:52;;;;;;;3.60;2.83;;;2.80;99.90;;;;;;5274052;27;20582;-56
2024/04/18 01:20:21;;;;;;;3.27;2.97;;;2.80;99.90;;;;;;5274240;27;20464;-55
2024/04/18 01:22:47;;;;;;;2.63;2.43;;;2.70;99.90;;;;;;5273981;27;20523;-51
2024/04/18 01:25:12;;;;;;;3.67;2.43;;;2.70;99.90;;;;;;5274454;27;20456;-55
2024/04/18 01:27:38;;;;;;;2.53;2.30;;;2.60;99.90;;;;;;5274341;27;20225;-51
2024/04/18 01:30:04;;;;;;;5.10;2.63;;;2.60;99.90;;;;;;5274199;27;20758;-50
2024/04/18 01:32:34;;;;;;;5.80;2.93;;;2.60;99.90;;;;;;5273814;27;20241;-51
2024/04/18 01:34:59;;;;;;;4.23;2.70;;;2.60;99.90;;;;;;5274503;27;21014;-49
2024/04/18 01:37:25;;;;;;;3.10;2.70;;;2.50;99.90;;;;;;5274003;27;20687;-49
2024/04/18 01:39:51;;;;;;;5.07;3.20;;;2.50;99.90;;;;;;5276685;27;20240;-50
2024/04/18 01:42:16;;;;;;;3.00;2.73;;;2.40;99.90;;;;;;5286287;27;20275;-54
2024/04/18 01:44:43;;;;;;;3.20;2.90;;;2.40;99.90;;;;;;5280142;26;20307;-48
2024/04/18 01:47:08;;;;;;;3.17;2.90;;;2.40;99.90;;;;;;5277379;27;20225;-48
2024/04/18 01:49:34;;;;;;;2.60;2.40;;;2.30;99.90;;;;;;5276812;27;20451;-53
2024/04/18 01:51:59;;;;;;;4.47;3.10;;;2.30;99.90;;;;;;5276856;27;20221;-53
2024/04/18 01:54:25;;;;;;;3.13;2.73;;;2.30;99.90;;;;;;5277019;27;20330;-57
2024/04/18 01:56:51;;;;;;;6.30;2.47;;;2.30;99.90;;;;;;5276788;27;20683;-55
2024/04/18 01:59:16;;;;;;;2.73;2.40;;;2.30;99.90;;;;;;5277291;27;20228;-52
2024/04/18 02:01:42;;;;;;;5.33;2.93;;;2.30;99.90;;;;;;5277134;27;20225;-48
2024/04/18 02:04:07;;;;;;;3.87;3.23;;;2.30;99.90;;;;;;5277383;27;20240;-55
2024/04/18 02:06:33;;;;;;;3.90;3.40;;;2.20;99.90;;;;;;5276569;27;20757;-55
2024/04/18 02:08:59;;;;;;;4.20;3.17;;;2.20;99.90;;;;;;5303792;27;20558;-54
2024/04/18 02:11:24;;;;;;;3.10;2.90;;;2.10;99.90;;;;;;5276818;27;20711;-54
2024/04/18 02:13:50;;;;;;;3.60;2.70;;;2.10;99.90;;;;;;5276573;27;20229;-51
2024/04/18 02:16:15;;;;;;;3.30;3.03;;;2.00;99.90;;;;;;5276663;27;20224;-56
2024/04/18 02:18:41;;;;;;;3.13;2.90;;;2.10;99.90;;;;;;5276448;27;20217;-52
2024/04/18 02:21:06;;;;;;;4.20;3.43;;;2.00;99.90;;;;;;5276610;27;20275;-53
2024/04/18 02:23:32;;;;;;;4.27;2.70;;;2.00;99.90;;;;;;5276602;27;20263;-58
2024/04/18 02:25:57;;;;;;;4.43;3.30;;;2.00;99.90;;;;;;5276880;27;20334;-51
2024/04/18 02:28:23;;;;;;;3.70;3.30;;;2.00;99.90;;;;;;5276762;27;20225;-55
2024/04/18 02:30:48;;;;;;;2.50;2.30;;;2.00;99.90;;;;;;5276465;27;20237;-49
2024/04/18 02:33:15;;;;;;;2.60;2.33;;;2.00;99.90;;;;;;5276692;27;20272;-49
2024/04/18 02:35:41;;;;;;;2.87;2.53;;;2.00;99.90;;;;;;5276310;27;20292;-48
2024/04/18 02:38:06;;;;;;;6.47;3.60;;;2.00;99.90;;;;;;5276288;27;20456;-48
2024/04/18 02:40:32;;;;;;;3.80;3.40;;;2.00;99.90;;;;;;5276401;27;20224;-54
2024/04/18 02:42:57;;;;;;;3.80;3.13;;;1.90;99.90;;;;;;5281917;27;20228;-55
2024/04/18 02:45:23;;;;;;;3.30;2.50;;;1.90;99.90;;;;;;5285894;27;20707;-48
2024/04/18 02:47:50;;;;;;;3.80;2.80;;;1.90;99.90;;;;;;5277953;27;20220;-54
2024/04/18 02:50:15;;;;;;;3.90;3.00;;;1.90;99.90;;;;;;5276954;27;20559;-53
2024/04/18 02:52:41;;;;;;;3.33;2.77;;;1.90;99.90;;;;;;5278156;27;20512;-51
2024/04/18 02:55:07;;;;;;;3.70;3.40;;;1.90;99.90;;;;;;5277442;27;20687;-52
2024/04/18 02:57:32;;;;;;;5.73;3.13;;;1.90;99.90;;;;;;5276318;27;20225;-54
2024/04/18 02:59:59;;;;;;;4.73;3.27;;;1.80;99.90;;;;;;5275931;27;20217;-52
2024/04/18 03:02:25;;;;;;;3.60;3.30;;;1.80;99.90;;;;;;5288238;27;20227;-50
2024/04/18 03:04:51;;;;;;;3.60;3.30;;;1.80;99.90;;;;;;5277576;27;20561;-52
2024/04/18 03:07:17;;;;;;;4.57;3.40;;;1.80;99.90;;;;;;5275997;27;20464;-53
2024/04/18 03:09:42;;;;;;;3.40;3.10;;;1.80;99.90;;;;;;5275787;27;20268;-55
2024/04/18 03:12:08;;;;;;;4.03;3.63;;;1.80;99.90;;;;;;5275768;27;20262;-50
2024/04/18 03:14:34;;;;;;;3.30;3.00;;;1.80;99.90;;;;;;5275902;27;20566;-49
2024/04/18 03:16:59;;;;;;;3.60;3.30;;;1.80;99.90;;;;;;5275628;27;20566;-50
2024/04/18 03:19:25;;;;;;;4.30;3.17;;;1.70;99.90;;;;;;5275538;27;20566;-54
2024/04/18 03:21:51;;;;;;;5.37;3.80;;;1.70;99.90;;;;;;5275416;27;20271;-54
2024/04/18 03:24:22;;;;;;;3.60;2.80;;;1.80;99.90;;;;;;5275784;27;20548;-55
2024/04/18 03:26:48;;;;;;;6.10;4.03;;;1.70;99.90;;;;;;5275586;27;20460;-49
2024/04/18 03:29:14;;;;;;;4.10;3.70;;;1.70;99.90;;;;;;5275696;27;20456;-52
2024/04/18 03:31:47;;;;;;;5.00;3.90;;;1.70;99.90;;;;;;5275303;27;20456;-51
2024/04/18 03:34:12;;;;;;;4.63;4.23;;;1.70;99.90;;;;;;5275329;27;20516;-51
2024/04/18 03:36:43;;;;;;;5.00;3.13;;;1.70;99.90;;;;;;5274949;27;20531;-52
2024/04/18 03:39:09;;;;;;;9.30;4.10;;;1.70;99.90;;;;;;5275568;27;20570;-54
2024/04/18 03:41:37;;;;;;;3.90;3.50;;;1.70;99.90;;;;;;5275563;27;20576;-54
2024/04/18 03:44:04;;;;;;;3.30;2.87;;;1.70;99.90;;;;;;5275514;27;20700;-57
2024/04/18 03:46:29;;;;;;;3.90;3.60;;;1.70;99.90;;;;;;5275582;27;20464;-51
2024/04/18 03:48:55;;;;;;;5.30;3.57;;;1.70;99.90;;;;;;5275102;27;20659;-55
2024/04/18 03:51:22;;;;;;;8.63;4.60;;;1.70;99.90;;;;;;5275557;27;20295;-50
2024/04/18 03:53:47;;;;;;;4.67;3.83;;;1.70;99.90;;;;;;5275038;27;20342;-53
2024/04/18 03:56:13;;;;;;;3.80;3.40;;;1.70;99.90;;;;;;5275318;27;20464;-53
2024/04/18 03:58:38;;;;;;;5.57;4.30;;;1.70;99.90;;;;;;5275143;27;20754;-54
2024/04/18 04:01:04;;;;;;;5.60;4.13;;;1.80;99.90;;;;;;5275216;27;20241;-54
2024/04/18 04:03:29;;;;;;;6.00;3.60;;;1.70;99.90;;;;;;5273661;27;20715;-57
2024/04/18 04:05:55;;;;;;;7.00;3.80;;;1.80;99.90;;;;;;5274948;27;20224;-58
2024/04/18 04:08:21;;;;;;;5.90;3.53;;;1.70;99.90;;;;;;5275313;27;20268;-52
2024/04/18 04:10:46;;;;;;;6.20;4.50;;;1.80;99.90;;;;;;5274922;27;20236;-51
2024/04/18 04:13:12;;;;;;;5.37;4.30;;;1.80;99.90;;;;;;5275158;27;20345;-53
2024/04/18 04:15:37;;;;;;;4.60;4.20;;;1.80;99.90;;;;;;5275203;27;20229;-56
2024/04/18 04:18:03;;;;;;;6.40;4.30;;;1.80;99.90;;;;;;5274925;27;20368;-54
2024/04/18 04:20:29;;;;;;;5.60;4.03;;;1.80;99.90;;;;;;5275390;27;20367;-48
2024/04/18 04:22:54;;;;;;;4.73;4.00;;;1.90;99.90;;;;;;5274352;27;20468;-51
2024/04/18 04:25:20;;;;;;;4.93;4.27;;;1.90;99.90;;;;;;5274996;27;20267;-49
2024/04/18 04:27:46;;;;;;;6.67;4.73;;;1.90;99.90;;;;;;5274607;27;20228;-53
2024/04/18 04:30:11;;;;;;;5.17;4.67;;;2.00;99.90;;;;;;5274858;27;20690;-53
2024/04/18 04:32:37;;;;;;;5.13;4.30;;;2.00;99.90;;;;;;5274959;27;20233;-50
2024/04/18 04:35:02;;;;;;;6.83;4.23;;;1.90;99.90;;;;;;5274771;27;20270;-51
2024/04/18 04:37:28;;;;;;;4.80;4.30;;;1.90;99.90;;;;;;5275003;27;20665;-53
2024/04/18 04:39:54;;;;;;;4.87;4.47;;;1.90;99.90;;;;;;5274503;27;20225;-52
2024/04/18 04:42:19;;;;;;;4.77;4.27;;;2.00;99.90;;;;;;5274461;27;20237;-53
2024/04/18 04:44:45;;;;;;;5.70;4.70;;;2.00;99.90;;;;;;5274464;27;20232;-54
2024/04/18 04:47:10;;;;;;;5.43;4.27;;;2.10;99.90;;;;;;5274418;27;20294;-54
2024/04/18 04:49:36;;;;;;;6.40;4.13;;;2.10;99.90;;;;;;5274274;27;20825;-52
2024/04/18 04:52:06;;;;;;;6.80;4.40;;;2.10;99.90;;;;;;5274506;27;20221;-51
2024/04/18 04:54:32;;;;;;;6.57;4.67;;;2.10;99.90;;;;;;5274976;27;20723;-54
2024/04/18 04:56:57;;;;;;;4.80;4.20;;;2.10;99.90;;;;;;5274285;27;20526;-53
2024/04/18 04:59:23;;;;;;;4.23;3.83;;;2.20;99.90;;;;;;5274497;27;20452;-53
2024/04/18 05:01:48;;;;;;;5.67;3.87;;;2.20;99.90;;;;;;5274244;27;20220;-56
2024/04/18 05:04:14;;;;;;;5.77;4.40;;;2.20;99.90;;;;;;5274742;27;20342;-54
2024/04/18 05:06:40;;;;;;;4.67;3.93;;;2.30;99.90;;;;;;5274430;27;20233;-53
2024/04/18 05:09:06;;;;;;;4.90;3.60;;;2.30;99.90;;;;;;5274078;27;20623;-51
2024/04/18 05:11:32;;;;;;;5.03;3.70;;;2.40;99.90;;;;;;5274511;27;20719;-51
2024/04/18 05:13:58;;;;;;;5.93;3.60;;;2.40;99.90;;;;;;5275182;27;20609;-55
2024/04/18 05:16:23;;;;;;;7.23;4.27;;;2.50;99.90;;;;;;5278000;27;20283;-54
2024/04/18 05:18:49;;;;;;;7.27;4.43;;;2.60;99.90;;;;;;5277731;27;20232;-54
2024/04/18 05:21:14;;;;;;;13.53;4.53;;;2.60;99.90;;;;;;5278107;27;20224;-49
2024/04/18 05:23:40;;;;;;;4.90;4.20;;;2.70;99.90;;;;;;5277935;27;20259;-50
2024/04/18 05:26:06;;;;;;;5.50;4.23;;;2.80;99.90;;;;;;5277864;27;20232;-53
2024/04/18 05:28:40;;;;;;;5.00;4.57;;;2.80;99.90;;;;;;5278131;27;20280;-57
2024/04/18 05:31:09;;;;;;;5.77;5.27;;;2.90;99.90;;;;;;5277689;27;20239;-52
2024/04/18 05:33:35;;;;;;;6.07;5.07;;;3.10;99.90;;;;;;5277704;27;20814;-56
2024/04/18 05:36:02;;;;;;;7.50;4.47;;;3.20;99.90;;;;;;5277479;27;20465;-55
2024/04/18 05:38:27;;;;;;;7.97;4.93;;;3.30;99.90;;;;;;5277372;27;20452;-54
2024/04/18 05:40:53;;;;;;;7.10;5.40;;;3.40;99.90;;;;;;5276890;27;20940;-53
2024/04/18 05:43:19;;;;;;;6.20;4.90;;;3.50;99.90;;;;;;5277015;27;20317;-54
2024/04/18 05:45:46;;;;;;;7.40;5.13;;;3.70;99.90;;;;;;5277133;27;20815;-54
2024/04/18 05:48:12;;;;;;;7.10;4.80;;;3.90;99.90;;;;;;5277626;27;20236;-54
2024/04/18 05:50:37;;;;;;;11.63;5.27;;;4.30;99.90;;;;;;5277250;27;20463;-55
2024/04/18 05:53:03;;;;;;;6.40;3.93;;;4.70;99.90;;;;;;5276985;27;20281;-54
2024/04/18 05:55:29;;;;;;;4.63;4.13;;;5.50;99.90;;;;;;5277150;27;20338;-53
2024/04/18 05:57:54;;;;;;;4.30;3.33;;;5.90;99.90;;;;;;5276700;27;20467;-56
2024/04/18 06:00:20;;;;;;;7.57;4.20;;;6.00;99.90;;;;;;5276908;27;20272;-55
2024/04/18 06:02:45;;;;;;;5.37;3.30;;;6.40;99.90;;;;;;5277133;27;20236;-58
2024/04/18 06:05:11;;;;;;;4.77;3.60;;;6.50;99.90;;;;;;5277463;27;20573;-54
2024/04/18 06:07:37;;;;;;;4.03;2.63;;;7.40;99.90;;;;;;5277094;27;20236;-52
2024/04/18 06:10:02;;;;;;;4.10;3.03;;;7.50;99.90;;;;;;5276616;27;20634;-55
2024/04/18 06:12:28;;;;;;;4.17;3.67;;;8.60;99.90;;;;;;5276596;27;20233;-56
2024/04/18 06:14:53;;;;;;;4.40;3.10;;;8.50;99.90;;;;;;5276454;27;20264;-50
2024/04/18 06:17:19;;;;;;;3.20;2.90;;;8.70;99.90;;;;;;5276756;27;20241;-49
2024/04/18 06:19:49;;;;;;;3.30;2.90;;;9.10;99.90;;;;;;5276621;27;20276;-50
2024/04/18 06:22:14;;;;;;;2.63;2.43;;;9.50;99.90;;;;;;5276580;27;20237;-50
2024/04/18 06:24:41;;;;;;;3.07;2.40;;;9.50;99.90;;;;;;5276344;27;20462;-51
2024/04/18 06:27:07;;;;;;;2.60;2.40;;;9.20;99.90;;;;;;5275826;27;20233;-49
2024/04/18 06:29:33;;;;;;;2.37;2.10;;;9.90;99.90;;;;;;5276687;27;20532;-48
2024/04/18 06:31:58;;;;;;;2.90;2.50;;;9.40;99.90;;;;;;5276283;27;20804;-50
2024/04/18 06:34:24;;;;;;;3.87;2.67;;;9.60;99.90;;;;;;5277125;27;20551;-53
2024/04/18 06:36:50;;;;;;;3.30;2.00;;;10.30;99.90;;;;;;5290453;27;20363;-50
2024/04/18 06:39:15;;;;;;;1.63;1.47;;;10.70;99.90;;;;;;5276767;27;20252;-56
2024/04/18 06:41:41;;;;;;;2.40;1.67;;;11.50;99.90;;;;;;5276561;27;20295;-54
2024/04/18 06:44:07;;;;;;;2.13;1.77;;;11.20;99.90;;;;;;5276254;27;20345;-56
2024/04/18 06:46:34;;;;;;;2.60;1.97;;;10.60;99.90;;;;;;5276089;27;20278;-55
2024/04/18 06:49:00;;;;;;;1.43;1.30;;;11.70;99.90;;;;;;5275707;27;20272;-53
2024/04/18 06:51:26;;;;;;;2.50;1.73;;;11.10;99.90;;;;;;5276518;27;20473;-57
2024/04/18 06:53:51;;;;;;;1.67;1.47;;;11.00;99.90;;;;;;5276275;27;20347;-54
2024/04/18 06:56:17;;;;;;;1.80;1.30;;;12.00;99.90;;;;;;5276322;27;20281;-56
2024/04/18 06:58:43;;;;;;;1.53;1.43;;;12.70;99.90;;;;;;5285539;27;20294;-56
2024/04/18 07:01:08;;;;;;;1.97;1.37;;;12.60;98.50;;;;;;5284952;27;20235;-51
2024/04/18 07:03:34;;;;;;;1.80;1.37;;;12.80;99.20;;;;;;5288312;27;20948;-53
2024/04/18 07:05:59;;;;;;;1.77;1.10;;;13.40;99.10;;;;;;5285864;26;20612;-52
2024/04/18 07:08:25;;;;;;;2.10;1.50;;;12.70;95.30;;;;;;5276924;27;20224;-59
2024/04/18 07:10:52;;;;;;;2.50;1.40;;;12.30;96.70;;;;;;5276531;27;20272;-59
2024/04/18 07:13:19;;;;;;;1.53;1.20;;;11.80;97.10;;;;;;5276777;27;20244;-57
2024/04/18 07:15:44;;;;;;;1.97;1.77;;;12.30;97.60;;;;;;5276860;27;20524;-53
2024/04/18 07:18:10;;;;;;;1.03;0.93;;;12.70;94.90;;;;;;5289056;27;21002;-52
2024/04/18 07:20:35;;;;;;;1.97;1.17;;;14.00;90.50;;;;;;5289980;27;20231;-52
2024/04/18 07:23:01;;;;;;;1.33;1.23;;;14.80;90.60;;;;;;5285748;27;20267;-56
2024/04/18 07:25:26;;;;;;;2.10;1.30;;;14.40;89.20;;;;;;5289518;27;20243;-53
2024/04/18 07:27:52;;;;;;;1.63;1.10;;;14.20;83.20;;;;;;5286024;26;20276;-53
2024/04/18 07:30:19;;;;;;;2.67;1.30;;;14.20;87.40;;;;;;5287523;27;20238;-57
2024/04/18 07:32:44;;;;;;;1.43;1.10;;;14.40;79.60;;;;;;5288060;27;20228;-50
2024/04/18 07:35:10;;;;;;;1.20;1.00;;;13.30;83.80;;;;;;5284923;27;20474;-56
2024/04/18 07:37:36;;;;;;;1.47;1.10;;;12.80;85.00;;;;;;5289328;27;20229;-54
2024/04/18 07:40:08;;;;;;;2.40;2.03;;;14.20;87.20;;;;;;5282394;27;20270;-56
2024/04/18 07:42:33;;;;;;;2.23;1.40;;;13.90;81.00;;;;;;5285652;27;20355;-51
2024/04/18 07:44:59;;;;;;;1.37;1.20;;;15.50;79.70;;;;;;5305958;26;20468;-56
2024/04/18 07:47:25;;;;;;;1.40;1.10;;;15.50;73.60;;;;;;5288673;27;20273;-55
2024/04/18 07:49:50;;;;;;;2.10;1.10;;;15.70;71.10;;;;;;5286552;27;20242;-56
2024/04/18 07:52:16;;;;;;;1.40;1.30;;;15.80;69.20;;;;;;5285645;27;20236;-55
2024/04/18 07:54:41;;;;;;;1.53;1.33;;;16.30;68.70;;;;;;5288525;27;20349;-58
2024/04/18 07:57:07;;;;;;;1.20;1.10;;;15.90;64.90;;;;;;5284805;27;20276;-54
2024/04/18 07:59:33;;;;;;;1.10;0.90;;;15.20;60.90;;;;;;5280882;27;20234;-54
2024/04/18 08:01:58;;;;;;;0.90;0.90;;;13.70;63.30;;;;;;5275444;27;20240;-54
2024/04/18 08:04:24;;;;;;;1.90;1.40;;;13.60;59.50;;;;;;5275788;27;20240;-64
2024/04/18 08:06:51;;;;;;;1.10;1.00;;;13.20;61.60;;;;;;5275641;27;20279;-52
2024/04/18 08:09:17;;;;;;;1.23;1.13;;;12.70;71.90;;;;;;5279905;27;20851;-56
2024/04/18 08:11:43;;;;;;;1.90;1.20;;;13.40;67.20;;;;;;5288999;27;20468;-53
2024/04/18 08:14:08;;;;;;;1.20;1.03;;;14.80;66.20;;;;;;5282938;26;20334;-57
2024/04/18 08:16:34;;;;;;;1.97;1.40;;;14.50;59.20;;;;;;5284713;27;20288;-53
2024/04/18 08:19:00;;;;;;;1.80;0.90;;;14.20;61.50;;;;;;5301955;27;20223;-49
2024/04/18 08:21:27;;;;;;;0.90;0.80;;;13.60;62.30;;;;;;5275544;27;20243;-52
2024/04/18 08:23:52;;;;;;;1.00;0.90;;;13.30;59.40;;;;;;5278263;27;20345;-59
2024/04/18 08:26:18;;;;;;;1.43;0.90;;;13.30;59.90;;;;;;5273561;27;20463;-57
2024/04/18 08:28:44;;;;;;;0.80;0.80;;;13.90;59.60;;;;;;5271984;27;20677;-54
2024/04/18 08:31:09;;;;;;;1.87;0.80;;;15.00;58.80;;;;;;5273499;27;20719;-53
2024/04/18 08:33:35;;;;;;;0.80;0.80;;;14.20;58.00;;;;;;5274101;27;20353;-51
2024/04/18 08:36:00;;;;;;;1.00;0.90;;;14.70;54.50;;;;;;5273722;27;20292;-54
2024/04/18 08:38:26;;;;;;;1.10;1.00;;;14.80;57.70;;;;;;5274127;27;20228;-54
2024/04/18 08:40:52;;;;;;;2.23;1.00;;;14.80;56.30;;;;;;5274395;27;20576;-49
2024/04/18 08:43:18;;;;;;;1.17;1.00;;;15.00;58.70;;;;;;5274596;27;20231;-49
2024/04/18 08:45:44;;;;;;;1.80;0.80;;;14.20;57.50;;;;;;5274843;27;20225;-55
2024/04/18 08:48:10;;;;;;;1.00;0.90;;;14.80;57.00;;;;;;5274837;27;20791;-54
2024/04/18 08:50:40;;;;;;;1.10;0.80;;;14.20;57.60;;;;;;5278463;27;20511;-53
2024/04/18 08:53:06;;;;;;;1.17;0.80;;;14.20;56.00;;;;;;5290560;21;21080;-61
2024/04/18 08:55:37;;;;;;;1.23;0.97;;;14.90;56.90;;;;;;5275557;27;20459;-61
2024/04/18 08:58:05;;;;;;;1.10;1.00;;;14.70;53.90;;;;;;5275067;27;20240;-61
2024/04/18 09:00:32;;;;;;;8.33;1.50;;;15.20;55.00;;;;;;5275550;27;20459;-60
2024/04/18 09:02:59;;;;;;;1.07;0.97;;;16.30;53.20;;;;;;5275182;27;20468;-62
2024/04/18 09:05:25;;;;;;;1.10;1.00;;;15.40;51.50;;;;;;5275208;27;20521;-60
2024/04/18 09:07:51;;;;;;;2.70;0.80;;;15.70;52.80;;;;;;5275714;27;20457;-61
2024/04/18 09:10:21;;;;;;;1.27;0.80;;;17.20;51.10;;;;;;5275228;27;20719;-61
2024/04/18 09:12:53;;;;;;;1.77;1.30;;;15.40;48.00;;;;;;5275776;27;20322;-61
2024/04/18 09:15:19;;;;;;;1.40;0.90;;;14.90;48.20;;;;;;5275755;27;20548;-58
2024/04/18 09:17:45;;;;;;;1.30;0.80;;;13.70;47.60;;;;;;5275332;27;20575;-61
2024/04/18 09:20:10;;;;;;;1.67;0.90;;;13.10;50.20;;;;;;5275075;27;20236;-61
2024/04/18 09:22:36;;;;;;;1.67;1.20;;;13.60;51.60;;;;;;5275011;27;20290;-62
2024/04/18 09:25:06;;;;;;;2.70;1.20;;;13.20;50.30;;;;;;5275032;27;20233;-61
2024/04/18 09:27:33;;;;;;;1.40;1.10;;;12.60;53.50;;;;;;5275591;27;20278;-61
2024/04/18 09:29:59;;;;;;;2.60;1.20;;;12.90;53.60;;;;;;5274869;27;20525;-59
2024/04/18 09:32:25;;;;;;;1.17;0.80;;;12.50;51.60;;;;;;5274937;27;20928;-62
2024/04/18 09:34:54;;;;;;;1.10;0.90;;;12.50;52.50;;;;;;5275183;27;20233;-62
2024/04/18 09:37:22;;;;;;;1.70;1.20;;;11.90;54.60;;;;;;5274801;27;21066;-61
2024/04/18 09:39:51;;;;;;;1.73;1.10;;;12.40;54.50;;;;;;5274940;27;20464;-62
2024/04/18 09:42:28;;;;;;;1.20;1.10;;;12.20;54.70;;;;;;5274644;27;20479;-62
2024/04/18 09:44:59;;;;;;;1.20;0.87;;;12.00;53.80;;;;;;5275141;27;20467;-59
2024/04/18 09:47:26;;;;;;;1.47;0.90;;;11.90;54.30;;;;;;5274853;27;20935;-61
2024/04/18 09:49:53;;;;;;;1.00;0.80;;;12.20;55.00;;;;;;5275120;27;20518;-60
2024/04/18 09:52:20;;;;;;;1.20;0.90;;;11.90;56.20;;;;;;5274650;27;20534;-61
2024/04/18 09:54:46;;;;;;;1.57;1.00;;;12.10;54.30;;;;;;5274788;27;21026;-59
2024/04/18 09:57:14;;;;;;;1.20;0.87;;;11.90;54.10;;;;;;5274309;27;20546;-61
2024/04/18 09:59:40;;;;;;;1.50;1.00;;;11.50;55.40;;;;;;5274496;27;20456;-60
2024/04/18 10:02:12;;;;;;;1.30;1.03;;;11.10;54.50;;;;;;5274438;27;20529;-59
2024/04/18 10:04:39;;;;;;;2.83;1.00;;;11.00;55.50;;;;;;5274708;27;20594;-61
2024/04/18 10:07:09;;;;;;;2.27;1.10;;;11.20;56.10;;;;;;5274514;27;20965;-60
2024/04/18 10:09:37;;;;;;;1.00;0.90;;;10.70;55.10;;;;;;5274303;27;20447;-61
2024/04/18 10:12:05;;;;;;;1.53;0.97;;;11.10;55.40;;;;;;5274312;27;20467;-61
2024/04/18 10:14:30;;;;;;;0.80;0.80;;;10.90;53.20;;;;;;5274172;27;20464;-60
2024/04/18 10:16:56;;;;;;;1.23;0.80;;;10.70;54.80;;;;;;5274315;27;20515;-58
2024/04/18 10:19:23;;;;;;;1.43;0.87;;;10.80;54.60;;;;;;5267406;27;20607;-62
2024/04/18 10:21:58;;;;;;;2.53;1.07;;;11.20;55.60;;;;;;5274352;27;20232;-58
2024/04/18 10:24:34;;;;;;;1.37;0.90;;;11.00;55.70;;;;;;5260491;27;20467;-60
2024/04/18 10:27:01;;;;;;;1.00;0.90;;;11.10;55.60;;;;;;5273694;27;20587;-60
2024/04/18 10:29:27;;;;;;;1.93;1.00;;;11.00;57.00;;;;;;5273905;27;20512;-58
2024/04/18 10:31:54;;;;;;;2.10;1.23;;;11.40;56.70;;;;;;5273962;27;20540;-60
2024/04/18 10:34:26;;;;;;;1.97;1.00;;;11.70;57.20;;;;;;5273794;27;20531;-61
2024/04/18 10:36:53;;;;;;;4.73;2.40;;;11.90;57.60;;;;;;5273997;27;21039;-60
2024/04/18 10:39:52;;;;;;;2.13;1.20;;;11.70;58.60;;;;;;5273797;27;20457;-61
2024/04/18 10:42:21;;;;;;;1.50;1.27;;;12.10;57.80;;;;;;5235907;27;20468;-60
2024/04/18 10:44:48;;;;;;;1.30;1.20;;;12.10;58.20;;;;;;5273840;27;20480;-60
2024/04/18 10:47:14;;;;;;;1.27;1.17;;;12.20;58.40;;;;;;5273836;27;20622;-60
2024/04/18 10:49:40;;;;;;;3.23;1.00;;;12.20;58.10;;;;;;5273874;27;20460;-69
2024/04/18 10:52:10;;;;;;;1.23;0.90;;;12.30;58.10;;;;;;5273533;27;20865;-65
2024/04/18 10:54:36;;;;;;;1.73;1.00;;;11.80;59.90;;;;;;5273962;27;20296;-69
2024/04/18 10:57:02;;;;;;;1.10;1.00;;;11.40;63.40;;;;;;5273958;27;20610;-66
2024/04/18 10:59:28;;;;;;;1.57;1.30;;;11.50;66.90;;;;;;5274020;27;20539;-68
2024/04/18 11:02:04;;;;;;;2.00;1.60;;;11.70;70.80;;;;;;5273942;27;20738;-68
2024/04/18 11:04:30;;;;;;;3.17;1.70;;;11.80;69.90;;;;;;5261386;27;20228;-64
2024/04/18 11:06:56;;;;;;;2.10;1.63;;;11.50;70.00;;;;;;5273707;27;20962;-59
2024/04/18 11:09:21;;;;;;;2.20;1.17;;;11.80;69.40;;;;;;5273576;27;20240;-58
2024/04/18 11:11:48;;;;;;;2.13;1.23;;;11.80;67.20;;;;;;5273141;27;20326;-58
2024/04/18 11:14:13;;;;;;;3.43;1.20;;;11.90;66.40;;;;;;5273934;27;20256;-58
2024/04/18 11:16:40;;;;;;;4.67;2.80;;;11.60;69.00;;;;;;5274632;27;20586;-59
2024/04/18 11:19:05;;;;;;;5.83;2.40;;;11.20;73.10;;;;;;5273785;27;20679;-60
2024/04/18 11:21:31;;;;;;;9.87;4.30;;;11.40;74.70;;;;;;5273418;27;20508;-61
2024/04/18 11:23:57;;;;;;;7.03;4.03;;;11.00;74.20;;;;;;5273426;27;20568;-60
2024/04/18 11:26:24;;;;;;;5.27;4.70;;;11.00;77.40;;;;;;5273176;27;20241;-61
2024/04/18 11:28:51;;;;;;;1.47;1.30;;;11.00;76.40;;;;;;5273885;27;20279;-60
2024/04/18 11:31:17;;;;;;;4.37;1.33;;;10.90;74.90;;;;;;5273239;27;20460;-60
2024/04/18 11:33:44;;;;;;;2.50;1.80;;;10.70;77.40;;;;;;5273608;27;20524;-57
2024/04/18 11:36:09;;;;;;;2.60;1.30;;;10.50;81.50;;;;;;5272963;27;20524;-61
2024/04/18 11:38:35;;;;;;;1.20;1.10;;;10.70;82.40;;;;;;5273418;27;20812;-60
2024/04/18 11:41:01;;;;;;;1.67;1.20;;;10.30;84.10;;;;;;5273348;27;20228;-61
2024/04/18 11:43:26;;;;;;;1.73;1.13;;;9.90;84.90;;;;;;5273163;27;20237;-61
2024/04/18 11:45:52;;;;;;;5.93;2.50;;;9.90;86.00;;;;;;5273013;27;20224;-60
2024/04/18 11:48:18;;;;;;;5.53;3.50;;;10.20;85.80;;;;;;5272912;27;20237;-59
2024/04/18 11:50:43;;;;;;;1.80;1.70;;;10.70;84.20;;;;;;5273310;27;20233;-58
2024/04/18 11:53:09;;;;;;;1.70;1.30;;;11.00;81.80;;;;;;5272954;27;20236;-64
2024/04/18 11:55:36;;;;;;;4.57;2.10;;;11.00;79.70;;;;;;5273268;27;20244;-63
2024/04/18 11:58:03;;;;;;;5.33;1.90;;;11.00;78.00;;;;;;5272988;27;20504;-60
2024/04/18 12:00:29;;;;;;;1.43;1.10;;;11.00;75.60;;;;;;5272362;27;20467;-60
2024/04/18 12:02:55;;;;;;;3.00;1.67;;;11.30;76.30;;;;;;5272929;27;20475;-60
2024/04/18 12:05:22;;;;;;;5.07;3.67;;;11.50;77.50;;;;;;5272774;27;20480;-60
2024/04/18 12:07:47;;;;;;;3.43;2.40;;;11.90;74.60;;;;;;5273175;27;20617;-61
2024/04/18 12:10:13;;;;;;;2.13;1.90;;;12.20;71.20;;;;;;5272512;27;20464;-60
2024/04/18 12:12:39;;;;;;;7.13;3.43;;;12.40;70.00;;;;;;5272468;27;20291;-60
2024/04/18 12:15:04;;;;;;;1.90;1.43;;;12.70;67.00;;;;;;5272867;27;20774;-61
2024/04/18 12:17:30;;;;;;;3.80;2.27;;;13.00;66.00;;;;;;5258955;27;20307;-61
2024/04/18 12:19:56;;;;;;;2.03;1.47;;;12.90;63.70;;;;;;5272612;27;20240;-60
2024/04/18 12:22:21;;;;;;;2.70;2.03;;;12.70;61.10;;;;;;5272204;27;20680;-58
2024/04/18 12:24:47;;;;;;;1.53;1.20;;;12.30;61.40;;;;;;5271137;27;20275;-60
2024/04/18 12:27:13;;;;;;;2.87;2.50;;;12.70;60.00;;;;;;5272105;27;20668;-60
2024/04/18 12:29:39;;;;;;;6.33;4.53;;;12.90;62.30;;;;;;5272547;27;20587;-57
2024/04/18 12:32:06;;;;;;;15.27;10.57;;;13.20;61.40;;;;;;5272795;27;20237;-60
2024/04/18 12:34:32;;;;;;;2.70;1.90;;;13.20;65.80;;;;;;5272613;27;20233;-60
2024/04/18 12:36:57;;;;;;;21.67;17.57;;;13.10;60.10;;;;;;5272583;27;20464;-60
2024/04/18 12:39:23;;;;;;;0.90;0.90;;;12.90;60.00;;;;;;5272260;27;20236;-58
2024/04/18 12:41:48;;;;;;;56.97;41.07;;;13.80;64.10;;;;;;5272367;27;20282;-61
2024/04/18 12:44:14;;;;;;;44.00;30.63;;;13.40;75.10;;;;;;5272255;27;20323;-61
2024/04/18 12:46:40;;;;;;;14.23;10.50;;;13.30;77.70;;;;;;5272484;27;20487;-57